Time;durP1;ratioP1;P1;durP2;ratioP2;P2;SDS_P1;SDS_P2;PMS_P1;PMS_P2;Temp;Humidity;BMP_temperature;BMP_pressure;BME280_temperature;BME280_humidity;BME280_pressure;Samples;Min_cycle;Max_cycle;Signal;HPM_P1;HPM_P2
2021/05/03 00:00:46;;;;;;;17.83;4.82;;;10.40;99.90;;;;;;5049989;28;20043;-74
2021/05/03 00:03:50;;;;;;;17.98;4.45;;;10.40;99.90;;;;;;5047070;28;20519;-74
2021/05/03 00:06:54;;;;;;;11.82;3.72;;;10.40;99.90;;;;;;5047189;28;20043;-73
2021/05/03 00:09:58;;;;;;;18.05;4.25;;;10.40;99.90;;;;;;5051249;28;20048;-73
2021/05/03 00:13:03;;;;;;;14.23;4.05;;;10.40;99.90;;;;;;5051634;28;20036;-73
2021/05/03 00:16:07;;;;;;;16.38;3.88;;;10.40;99.90;;;;;;5038554;28;20392;-74
2021/05/03 00:19:11;;;;;;;11.60;4.22;;;10.30;99.90;;;;;;5040564;28;20056;-74
2021/05/03 00:22:16;;;;;;;12.75;4.28;;;10.30;99.90;;;;;;5049771;28;20048;-74
2021/05/03 00:25:20;;;;;;;15.10;3.80;;;10.30;99.90;;;;;;5050720;28;20040;-73
2021/05/03 00:28:24;;;;;;;11.10;3.85;;;10.20;99.90;;;;;;5051738;28;20055;-74
2021/05/03 00:31:28;;;;;;;13.63;3.97;;;10.20;99.90;;;;;;5050198;28;20040;-74
2021/05/03 00:34:33;;;;;;;12.52;3.92;;;10.20;99.90;;;;;;5050619;28;20388;-74
2021/05/03 00:37:37;;;;;;;20.08;5.32;;;10.10;99.90;;;;;;5051216;28;20056;-74
2021/05/03 00:40:42;;;;;;;15.68;4.28;;;10.20;99.90;;;;;;5050061;28;20048;-74
2021/05/03 00:43:46;;;;;;;14.00;4.45;;;10.30;99.90;;;;;;5050853;28;20056;-72
2021/05/03 00:46:52;;;;;;;12.43;4.13;;;10.30;99.90;;;;;;5050616;28;20116;-74
2021/05/03 00:49:56;;;;;;;15.80;3.90;;;10.30;99.90;;;;;;5050973;28;20036;-73
2021/05/03 00:53:00;;;;;;;18.00;4.43;;;10.20;99.90;;;;;;5050421;28;20044;-73
2021/05/03 00:56:05;;;;;;;16.30;4.30;;;10.20;99.90;;;;;;5050185;28;20056;-73
2021/05/03 00:59:09;;;;;;;19.77;4.60;;;10.10;99.90;;;;;;5048708;28;20396;-73
2021/05/03 01:02:14;;;;;;;20.40;4.45;;;10.20;99.90;;;;;;5050038;28;20048;-73
2021/05/03 01:05:21;;;;;;;16.30;4.07;;;10.20;99.90;;;;;;5043305;28;20052;-73
2021/05/03 01:08:25;;;;;;;17.63;4.93;;;10.30;99.90;;;;;;5043119;28;20052;-74
2021/05/03 01:11:29;;;;;;;11.93;4.20;;;10.30;99.90;;;;;;5040658;28;20044;-73
2021/05/03 01:14:33;;;;;;;13.10;3.63;;;10.40;99.90;;;;;;5049429;28;20052;-73
2021/05/03 01:17:41;;;;;;;9.90;3.55;;;10.30;99.90;;;;;;5050758;28;20044;-73
2021/05/03 01:20:45;;;;;;;21.38;4.55;;;10.30;99.90;;;;;;5050021;28;20055;-74
2021/05/03 01:23:48;;;;;;;19.65;4.25;;;10.30;99.90;;;;;;5050666;28;20040;-73
2021/05/03 01:26:53;;;;;;;16.27;4.20;;;10.30;99.90;;;;;;5050058;28;20095;-73
2021/05/03 01:29:57;;;;;;;12.73;3.85;;;10.30;99.90;;;;;;5049342;28;20028;-74
2021/05/03 01:33:04;;;;;;;12.38;4.00;;;10.30;99.90;;;;;;5050812;28;20044;-74
2021/05/03 01:36:08;;;;;;;12.60;4.68;;;10.20;99.90;;;;;;5050195;28;20049;-74
2021/05/03 01:39:15;;;;;;;13.07;4.60;;;10.20;99.90;;;;;;5049619;28;20036;-74
2021/05/03 01:42:19;;;;;;;20.50;5.80;;;10.10;99.90;;;;;;5048888;28;20040;-73
2021/05/03 01:45:27;;;;;;;16.63;4.38;;;10.10;99.90;;;;;;5049130;28;20509;-74
2021/05/03 01:48:32;;;;;;;17.00;4.05;;;10.00;99.90;;;;;;5050531;28;20040;-74
2021/05/03 01:51:38;;;;;;;14.07;4.32;;;10.00;99.90;;;;;;5049392;28;20032;-74
2021/05/03 01:54:43;;;;;;;18.63;4.65;;;9.90;99.90;;;;;;5049582;28;20063;-74
2021/05/03 01:57:47;;;;;;;16.23;4.18;;;9.90;99.90;;;;;;5050335;28;20068;-73
2021/05/03 02:00:52;;;;;;;16.77;5.07;;;9.90;99.90;;;;;;5048763;28;20039;-74
2021/05/03 02:03:58;;;;;;;23.30;4.60;;;9.90;99.90;;;;;;5042520;28;20044;-74
2021/05/03 02:07:02;;;;;;;11.50;4.20;;;9.80;99.90;;;;;;5047143;28;20032;-73
2021/05/03 02:10:06;;;;;;;13.48;4.40;;;9.80;99.90;;;;;;5048289;28;20052;-74
2021/05/03 02:13:12;;;;;;;12.85;4.70;;;9.80;99.90;;;;;;5033273;28;20039;-74
2021/05/03 02:16:16;;;;;;;11.60;4.07;;;9.80;99.90;;;;;;5032287;28;20050;-74
2021/05/03 02:19:20;;;;;;;15.50;4.75;;;9.80;99.90;;;;;;5034772;28;20045;-74
2021/05/03 02:22:24;;;;;;;17.98;4.07;;;9.70;99.90;;;;;;5052307;28;20048;-73
2021/05/03 02:25:28;;;;;;;12.55;4.43;;;9.70;99.90;;;;;;5051797;28;20060;-73
2021/05/03 02:28:34;;;;;;;13.68;4.97;;;9.70;99.90;;;;;;5052574;28;20781;-73
2021/05/03 02:31:38;;;;;;;10.57;4.35;;;9.70;99.90;;;;;;5050696;28;20044;-73
2021/05/03 02:34:43;;;;;;;12.93;4.03;;;9.80;99.90;;;;;;5051491;28;20056;-74
2021/05/03 02:37:54;;;;;;;18.85;5.35;;;9.80;99.90;;;;;;5052221;28;20419;-74
2021/05/03 02:40:58;;;;;;;12.48;5.03;;;9.80;99.90;;;;;;5051530;28;20396;-74
2021/05/03 02:44:03;;;;;;;12.75;4.28;;;9.70;99.90;;;;;;5051416;28;20044;-75
2021/05/03 02:47:08;;;;;;;10.55;4.30;;;9.70;99.90;;;;;;5042820;28;20048;-75
2021/05/03 02:50:14;;;;;;;14.45;3.72;;;9.60;99.90;;;;;;5038571;28;20048;-74
2021/05/03 02:53:19;;;;;;;10.32;4.03;;;9.60;99.90;;;;;;5036761;28;20040;-75
2021/05/03 02:56:23;;;;;;;11.40;4.53;;;9.50;99.90;;;;;;5039140;28;20045;-74
2021/05/03 02:59:36;;;;;;;13.27;4.93;;;9.50;99.90;;;;;;5051502;28;20048;-74
2021/05/03 03:02:40;;;;;;;10.77;4.18;;;9.50;99.90;;;;;;5053059;28;20048;-75
2021/05/03 03:05:45;;;;;;;9.90;4.95;;;9.40;99.90;;;;;;5035284;28;20052;-74
2021/05/03 03:08:49;;;;;;;13.98;4.05;;;9.40;99.90;;;;;;5033673;28;20038;-75
2021/05/03 03:11:55;;;;;;;18.10;9.18;;;9.40;99.90;;;;;;5052202;28;20056;-74
2021/05/03 03:15:00;;;;;;;17.58;5.57;;;9.40;99.90;;;;;;5031991;28;20053;-74
2021/05/03 03:18:06;;;;;;;14.80;4.93;;;9.40;99.90;;;;;;5032251;28;20049;-75
2021/05/03 03:21:10;;;;;;;11.73;5.05;;;9.40;99.90;;;;;;5032119;28;20052;-73
2021/05/03 03:24:14;;;;;;;18.02;5.28;;;9.40;99.90;;;;;;5032033;28;20040;-73
2021/05/03 03:27:19;;;;;;;15.80;4.88;;;9.30;99.90;;;;;;5032275;28;20060;-73
2021/05/03 03:30:23;;;;;;;16.48;4.75;;;9.10;99.90;;;;;;5040431;28;20538;-74
2021/05/03 03:33:27;;;;;;;14.93;4.63;;;9.10;99.90;;;;;;5039481;28;20051;-73
2021/05/03 03:36:32;;;;;;;14.00;4.55;;;9.00;99.90;;;;;;5031856;28;20391;-73
2021/05/03 03:39:36;;;;;;;14.15;4.20;;;8.80;99.90;;;;;;5032022;28;20412;-74
2021/05/03 03:42:41;;;;;;;17.13;4.82;;;8.70;99.90;;;;;;5032300;28;20546;-75
2021/05/03 03:45:45;;;;;;;12.95;5.32;;;8.60;99.90;;;;;;5031326;28;20048;-74
2021/05/03 03:48:49;;;;;;;20.52;5.10;;;8.60;99.90;;;;;;5031533;28;20041;-73
2021/05/03 03:51:53;;;;;;;12.88;4.95;;;8.60;99.90;;;;;;5031623;28;20040;-74
2021/05/03 03:54:57;;;;;;;19.67;5.53;;;8.60;99.90;;;;;;5031701;28;20072;-74
2021/05/03 03:58:01;;;;;;;27.05;7.05;;;8.60;99.90;;;;;;5031767;28;20045;-73
2021/05/03 04:01:05;;;;;;;15.40;4.35;;;8.70;99.90;;;;;;5030319;28;20136;-72
2021/05/03 04:04:19;;;;;;;18.85;4.70;;;8.50;99.90;;;;;;5038421;28;20514;-74
2021/05/03 04:07:39;;;;;;;18.50;4.97;;;8.40;99.90;;;;;;5050638;28;20040;-74
2021/05/03 04:21:06;;;;;;;25.33;5.28;;;8.30;99.90;;;;;;5024443;28;20032;-74
2021/05/03 04:24:25;;;;;;;14.57;4.82;;;8.20;99.90;;;;;;5050933;28;20376;-74
2021/05/03 04:27:29;;;;;;;24.42;5.18;;;8.30;99.90;;;;;;5050724;28;20048;-75
2021/05/03 04:30:34;;;;;;;17.90;5.22;;;8.30;99.90;;;;;;5049715;28;20063;-73
2021/05/03 04:33:39;;;;;;;20.42;4.72;;;8.40;99.90;;;;;;5031196;28;20048;-75
2021/05/03 04:36:44;;;;;;;16.58;5.07;;;8.50;99.90;;;;;;5031316;28;20052;-74
2021/05/03 04:39:49;;;;;;;14.00;4.70;;;8.60;99.90;;;;;;5030860;28;20701;-74
2021/05/03 04:42:53;;;;;;;16.90;5.20;;;8.70;99.90;;;;;;5031360;28;20064;-74
2021/05/03 04:45:58;;;;;;;19.52;5.30;;;8.90;99.90;;;;;;5030191;28;20059;-74
2021/05/03 04:49:02;;;;;;;16.98;4.10;;;9.20;99.90;;;;;;5030533;28;20056;-74
2021/05/03 04:52:06;;;;;;;14.98;4.32;;;9.30;99.90;;;;;;5040702;28;20499;-73
2021/05/03 04:55:11;;;;;;;16.42;4.40;;;9.60;99.90;;;;;;5037949;28;20051;-74
2021/05/03 04:58:16;;;;;;;27.17;4.82;;;9.80;99.90;;;;;;5044959;28;20056;-74
2021/05/03 05:01:21;;;;;;;13.02;4.53;;;10.00;99.90;;;;;;5044897;28;20052;-74
2021/05/03 05:04:25;;;;;;;18.75;4.68;;;9.40;99.90;;;;;;5046106;28;20044;-74
2021/05/03 05:07:30;;;;;;;19.73;5.30;;;9.00;99.90;;;;;;5049922;28;20066;-74
2021/05/03 05:10:35;;;;;;;14.32;4.05;;;8.90;99.90;;;;;;5048167;28;20048;-72
2021/05/03 05:13:40;;;;;;;14.48;4.30;;;9.20;99.90;;;;;;5050364;28;20045;-73
2021/05/03 05:16:47;;;;;;;16.20;4.25;;;9.10;99.90;;;;;;5047674;28;20040;-75
2021/05/03 05:19:51;;;;;;;13.88;4.15;;;10.30;99.90;;;;;;5031901;28;20048;-74
2021/05/03 05:22:55;;;;;;;13.18;4.85;;;11.40;99.90;;;;;;5036585;28;20050;-74
2021/05/03 05:25:59;;;;;;;14.02;3.60;;;12.20;99.90;;;;;;5031156;28;20618;-74
2021/05/03 05:29:04;;;;;;;9.73;4.38;;;13.70;99.90;;;;;;5031050;28;20376;-74
2021/05/03 05:32:09;;;;;;;13.55;3.90;;;14.30;99.90;;;;;;5033661;28;20041;-73
2021/05/03 05:35:14;;;;;;;12.00;4.35;;;15.40;99.90;;;;;;5030465;28;20064;-74
2021/05/03 05:38:18;;;;;;;14.25;4.07;;;15.90;99.90;;;;;;5029602;28;20052;-74
2021/05/03 05:41:23;;;;;;;10.90;2.95;;;15.70;99.90;;;;;;5029150;28;20045;-74
2021/05/03 05:44:27;;;;;;;14.13;3.28;;;16.00;99.90;;;;;;5029053;28;20048;-74
2021/05/03 05:47:31;;;;;;;10.57;3.28;;;16.70;99.90;;;;;;5033062;28;20063;-74
2021/05/03 05:50:36;;;;;;;12.52;3.10;;;17.00;99.90;;;;;;5043907;28;20044;-74
2021/05/03 05:53:40;;;;;;;14.90;3.92;;;18.10;99.90;;;;;;5031055;28;20048;-74
2021/05/03 05:56:44;;;;;;;15.63;3.65;;;18.90;99.90;;;;;;5047302;28;20039;-74
2021/05/03 05:59:49;;;;;;;11.65;3.83;;;20.10;99.90;;;;;;5049244;28;20589;-74
2021/05/03 06:02:53;;;;;;;65.13;38.75;;;21.40;99.90;;;;;;5046628;28;20043;-73
2021/05/03 06:05:58;;;;;;;17.88;4.22;;;17.30;99.90;;;;;;5042975;28;20044;-73
2021/05/03 06:09:04;;;;;;;11.55;3.38;;;14.20;99.90;;;;;;5051872;28;20043;-71
2021/05/03 06:12:08;;;;;;;10.10;3.20;;;13.60;99.90;;;;;;5043044;28;20032;-73
2021/05/03 06:15:12;;;;;;;11.43;3.20;;;14.90;99.90;;;;;;5051770;28;20044;-73
2021/05/03 06:18:16;;;;;;;12.57;3.28;;;14.40;99.90;;;;;;5043409;28;20384;-75
2021/05/03 06:21:21;;;;;;;15.25;3.10;;;14.00;99.90;;;;;;5032374;28;20055;-74
2021/05/03 06:24:25;;;;;;;12.13;2.90;;;14.30;99.90;;;;;;5036867;28;20044;-74
2021/05/03 06:27:29;;;;;;;19.25;4.90;;;16.40;99.90;;;;;;5036601;28;20049;-73
2021/05/03 06:30:34;;;;;;;17.08;5.70;;;17.60;99.90;;;;;;5041854;28;20048;-73
2021/05/03 06:33:40;;;;;;;10.63;4.10;;;17.50;99.90;;;;;;5041801;28;20107;-74
2021/05/03 06:36:44;;;;;;;12.35;3.83;;;19.20;99.90;;;;;;5045974;28;20372;-74
2021/05/03 06:39:48;;;;;;;10.02;2.72;;;17.90;99.90;;;;;;5041321;28;20036;-73
2021/05/03 06:42:52;;;;;;;9.57;3.45;;;16.40;99.90;;;;;;5046680;28;20725;-73
2021/05/03 06:45:57;;;;;;;12.93;3.33;;;17.00;99.90;;;;;;5041341;28;20047;-75
2021/05/03 06:49:01;;;;;;;13.18;3.80;;;18.60;99.90;;;;;;5042037;28;20048;-74
2021/05/03 06:52:06;;;;;;;59.17;33.13;;;19.70;99.90;;;;;;5037961;28;20392;-74
2021/05/03 06:55:14;;;;;;;154.00;92.25;;;20.60;99.90;;;;;;5046673;28;21390;-74
2021/05/03 06:58:18;;;;;;;139.93;84.22;;;22.20;99.90;;;;;;5046419;28;20036;-74
2021/05/03 07:01:22;;;;;;;24.00;11.85;;;23.10;99.10;;;;;;5048013;28;20413;-74
2021/05/03 07:04:26;;;;;;;24.80;9.80;;;22.30;98.00;;;;;;5038311;28;20495;-74
2021/05/03 07:07:30;;;;;;;36.17;21.70;;;18.80;99.90;;;;;;5042242;28;20062;-73
2021/05/03 07:10:38;;;;;;;16.92;4.07;;;18.30;99.90;;;;;;5051263;28;20399;-74
2021/05/03 07:13:42;;;;;;;19.52;7.80;;;17.60;99.90;;;;;;5052663;28;20380;-74
2021/05/03 07:16:46;;;;;;;10.95;5.57;;;18.20;99.90;;;;;;5043057;28;20048;-74
2021/05/03 07:19:52;;;;;;;12.85;4.45;;;19.90;99.90;;;;;;5020009;28;20044;-73
2021/05/03 07:22:59;;;;;;;12.77;5.55;;;21.80;99.50;;;;;;5026272;28;20036;-74
2021/05/03 07:26:05;;;;;;;10.38;4.30;;;22.50;98.50;;;;;;5034339;28;20096;-74
2021/05/03 07:29:09;;;;;;;14.88;4.25;;;22.30;97.70;;;;;;5017222;28;20087;-74
2021/05/03 07:32:13;;;;;;;12.07;4.70;;;19.90;99.90;;;;;;5030612;28;20060;-74
2021/05/03 07:35:18;;;;;;;18.23;3.83;;;21.50;99.30;;;;;;5032022;28;21580;-73
2021/05/03 07:38:23;;;;;;;14.07;3.03;;;20.50;98.30;;;;;;5035707;28;20052;-74
2021/05/03 07:41:27;;;;;;;8.40;2.80;;;20.10;99.60;;;;;;5029535;28;20056;-74
2021/05/03 07:44:31;;;;;;;13.25;3.28;;;21.80;98.00;;;;;;5024096;28;20799;-73
2021/05/03 07:47:35;;;;;;;11.93;2.72;;;21.60;98.10;;;;;;5038488;28;20924;-74
2021/05/03 07:50:41;;;;;;;7.05;2.45;;;23.60;95.80;;;;;;5027873;28;20048;-73
2021/05/03 07:53:50;;;;;;;9.32;2.10;;;22.50;94.70;;;;;;5025626;28;20044;-74
2021/05/03 07:56:55;;;;;;;6.82;2.53;;;21.30;93.00;;;;;;5028025;28;20044;-74
2021/05/03 07:59:59;;;;;;;9.25;1.90;;;20.10;95.10;;;;;;5029319;28;20044;-72
2021/05/03 08:03:03;;;;;;;7.45;2.25;;;23.70;94.10;;;;;;5044147;28;20040;-74
2021/05/03 08:06:12;;;;;;;8.07;2.55;;;25.70;88.20;;;;;;5038067;28;20064;-73
2021/05/03 08:09:16;;;;;;;7.97;1.88;;;27.40;85.30;;;;;;5048363;28;20040;-74
2021/05/03 08:12:21;;;;;;;5.05;1.75;;;28.60;82.50;;;;;;5031344;28;20412;-74
2021/05/03 08:15:25;;;;;;;4.80;1.70;;;29.50;78.10;;;;;;5040648;28;20064;-74
2021/05/03 08:18:30;;;;;;;5.15;1.88;;;30.30;75.50;;;;;;5050702;28;20116;-74
2021/05/03 08:21:35;;;;;;;4.53;1.70;;;31.00;72.70;;;;;;5046896;28;20153;-74
2021/05/03 08:24:39;;;;;;;5.63;1.95;;;31.90;67.30;;;;;;5050940;28;20056;-74
2021/05/03 08:27:44;;;;;;;11.77;1.77;;;30.60;63.40;;;;;;5039916;28;20510;-73
2021/05/03 08:30:50;;;;;;;5.88;2.08;;;29.50;68.60;;;;;;5040005;28;20057;-74
2021/05/03 08:33:56;;;;;;;6.65;2.00;;;30.90;67.50;;;;;;5030688;28;20032;-72
2021/05/03 08:37:00;;;;;;;6.82;2.05;;;31.10;61.60;;;;;;5039976;28;20049;-74
2021/05/03 08:40:04;;;;;;;6.88;2.00;;;32.10;59.50;;;;;;5046790;28;20039;-74
2021/05/03 08:43:08;;;;;;;4.82;1.60;;;28.30;62.80;;;;;;5046836;28;20048;-75
2021/05/03 08:46:27;;;;;;;6.80;2.17;;;30.50;62.20;;;;;;5039438;28;20048;-73
2021/05/03 08:52:53;;;;;;;9.27;2.88;;;29.10;62.90;;;;;;5043269;28;20055;-74
2021/05/03 08:55:57;;;;;;;6.03;1.55;;;29.30;61.90;;;;;;5034479;28;20383;-74
2021/05/03 08:59:01;;;;;;;4.97;1.92;;;28.70;61.20;;;;;;5050934;28;20502;-74
2021/05/03 09:02:07;;;;;;;8.50;1.95;;;28.70;62.70;;;;;;5048618;28;20044;-73
2021/05/03 09:05:12;;;;;;;7.97;1.75;;;28.60;62.90;;;;;;5042420;28;20052;-73
2021/05/03 09:08:24;;;;;;;7.07;1.73;;;25.70;61.10;;;;;;5046903;28;20478;-73
2021/05/03 09:11:28;;;;;;;7.82;2.10;;;26.10;64.80;;;;;;5041206;28;20040;-74
2021/05/03 09:14:34;;;;;;;9.50;2.38;;;25.50;66.00;;;;;;5041055;28;20064;-74
2021/05/03 09:17:41;;;;;;;9.80;2.03;;;24.50;66.70;;;;;;5031672;28;20072;-73
2021/05/03 09:20:49;;;;;;;11.95;2.55;;;23.60;67.80;;;;;;5032817;28;20040;-74
2021/05/03 09:24:27;;;;;;;4.35;1.92;;;23.80;68.90;;;;;;5046249;28;20570;-73
2021/05/03 09:27:32;;;;;;;7.28;1.95;;;26.10;68.50;;;;;;5052047;28;20388;-73
2021/05/03 09:30:48;;;;;;;7.38;1.88;;;29.90;64.80;;;;;;5031596;28;20054;-74
2021/05/03 09:33:52;;;;;;;6.15;1.73;;;33.00;59.20;;;;;;5043394;28;20557;-74
2021/05/03 09:37:20;;;;;;;5.90;1.75;;;31.50;57.30;;;;;;5046846;28;20060;-74
2021/05/03 09:40:24;;;;;;;7.40;1.40;;;32.50;56.60;;;;;;5033262;28;20550;-73
2021/05/03 09:43:32;;;;;;;3.70;1.48;;;28.80;52.20;;;;;;5034719;28;20078;-73
2021/05/03 09:46:37;;;;;;;9.48;1.90;;;30.40;58.00;;;;;;5050137;28;20502;-68
2021/05/03 09:49:41;;;;;;;11.18;2.40;;;22.70;59.30;;;;;;5054649;28;20056;-74
2021/05/03 09:53:09;;;;;;;4.63;1.73;;;24.50;64.40;;;;;;5039473;28;20040;-72
2021/05/03 09:56:13;;;;;;;7.38;1.98;;;23.10;64.80;;;;;;5053919;28;20060;-72
2021/05/03 09:59:36;;;;;;;8.70;2.20;;;20.40;69.60;;;;;;5054016;28;20384;-74
2021/05/03 10:02:41;;;;;;;5.45;2.05;;;23.90;68.20;;;;;;5033721;28;20068;-74
2021/05/03 10:05:46;;;;;;;5.97;1.83;;;25.70;60.70;;;;;;5033499;28;20036;-73
2021/05/03 10:08:51;;;;;;;6.13;1.92;;;25.40;63.50;;;;;;5033749;28;20048;-72
2021/05/03 10:11:55;;;;;;;6.55;2.03;;;24.30;64.20;;;;;;5032859;28;20056;-73
2021/05/03 10:15:06;;;;;;;6.70;2.17;;;23.80;65.00;;;;;;5035280;28;20554;-73
2021/05/03 10:18:14;;;;;;;5.03;1.83;;;26.50;64.40;;;;;;5032055;28;20061;-73
2021/05/03 10:21:19;;;;;;;6.07;1.70;;;27.70;60.80;;;;;;5032501;28;20314;-74
2021/05/03 10:24:23;;;;;;;5.50;1.70;;;26.70;61.40;;;;;;5033026;28;20056;-74
2021/05/03 10:27:29;;;;;;;5.43;1.67;;;25.80;60.70;;;;;;5033160;28;20526;-73
2021/05/03 10:30:44;;;;;;;5.80;1.60;;;28.20;58.30;;;;;;5031919;28;20045;-74
2021/05/03 10:33:48;;;;;;;3.33;1.33;;;30.80;56.50;;;;;;5032831;28;20044;-74
2021/05/03 10:36:52;;;;;;;4.72;1.23;;;34.20;55.40;;;;;;5033464;28;20048;-74
2021/05/03 10:40:00;;;;;;;4.53;1.25;;;36.50;53.00;;;;;;5033163;28;20057;-72
2021/05/03 10:43:14;;;;;;;4.05;1.38;;;37.60;50.60;;;;;;5033097;28;20056;-74
2021/05/03 10:49:45;;;;;;;4.65;1.80;;;33.20;52.10;;;;;;5033243;28;20056;-73
2021/05/03 10:52:49;;;;;;;3.78;1.55;;;31.60;50.60;;;;;;5032797;28;20040;-74
2021/05/03 10:55:56;;;;;;;2.70;1.35;;;31.70;48.20;;;;;;5032502;28;20048;-73
2021/05/03 10:59:00;;;;;;;5.05;1.67;;;28.70;52.20;;;;;;5047772;28;20043;-73
2021/05/03 11:02:04;;;;;;;5.05;1.55;;;27.40;54.80;;;;;;5045447;28;20045;-72
2021/05/03 11:05:12;;;;;;;7.55;1.65;;;29.90;54.00;;;;;;5049925;28;20506;-73
2021/05/03 11:08:17;;;;;;;7.75;2.03;;;30.10;53.00;;;;;;5052267;28;20047;-74
2021/05/03 11:11:24;;;;;;;6.97;2.05;;;29.40;54.30;;;;;;5048049;28;20060;-74
2021/05/03 11:14:31;;;;;;;5.97;1.67;;;31.60;52.60;;;;;;5034458;28;20040;-74
2021/05/03 11:17:37;;;;;;;3.92;1.60;;;34.40;51.40;;;;;;5046836;28;20040;-74
2021/05/03 11:21:02;;;;;;;6.20;1.33;;;33.90;47.40;;;;;;5040669;28;20047;-74
2021/05/03 11:31:00;;;;;;;3.95;1.65;;;32.60;48.40;;;;;;5029113;28;20052;-73
2021/05/03 11:34:16;;;;;;;5.95;1.73;;;30.00;50.60;;;;;;5036192;28;20056;-73
2021/05/03 11:37:31;;;;;;;6.90;1.65;;;28.00;52.60;;;;;;5033683;28;20056;-73
2021/05/03 11:44:40;;;;;;;3.50;1.55;;;29.30;52.20;;;;;;5037097;28;20065;-74
2021/05/03 11:47:44;;;;;;;6.03;1.95;;;31.60;50.20;;;;;;5039047;28;20049;-75
2021/05/03 11:51:02;;;;;;;3.90;1.50;;;34.40;47.60;;;;;;5037824;28;20053;-73
2021/05/03 11:54:08;;;;;;;3.55;1.40;;;36.00;46.70;;;;;;5035633;28;20048;-74
2021/05/03 11:57:18;;;;;;;3.38;1.13;;;37.20;45.00;;;;;;5033425;28;20112;-74
2021/05/03 12:00:27;;;;;;;3.63;1.23;;;37.30;43.90;;;;;;5036219;28;20048;-74
2021/05/03 12:03:44;;;;;;;3.92;1.40;;;36.90;41.70;;;;;;5033584;28;20499;-73
2021/05/03 12:06:49;;;;;;;3.63;1.50;;;35.40;44.20;;;;;;5033576;28;20052;-73
2021/05/03 12:10:04;;;;;;;4.65;1.50;;;34.10;45.50;;;;;;5033749;28;20043;-71
2021/05/03 12:13:19;;;;;;;3.03;1.33;;;33.80;45.20;;;;;;5034424;28;20040;-73
2021/05/03 12:16:39;;;;;;;4.53;1.70;;;34.10;45.50;;;;;;5047727;28;20043;-72
2021/05/03 12:19:49;;;;;;;4.28;1.55;;;34.90;44.80;;;;;;5044058;28;20047;-73
2021/05/03 12:23:01;;;;;;;5.70;2.05;;;32.80;44.40;;;;;;5028074;28;20052;-72
2021/05/03 12:26:07;;;;;;;4.72;1.65;;;29.70;45.80;;;;;;5032894;28;20605;-71
2021/05/03 12:29:11;;;;;;;9.38;1.65;;;25.20;50.70;;;;;;5009418;28;21584;-74
2021/05/03 12:32:21;;;;;;;9.75;2.00;;;24.20;51.00;;;;;;5005007;28;20048;-72
2021/05/03 12:35:26;;;;;;;4.55;1.70;;;21.80;57.30;;;;;;5014082;28;20060;-73
2021/05/03 12:38:31;;;;;;;5.50;1.75;;;24.10;57.60;;;;;;5016470;28;20056;-73
2021/05/03 12:41:35;;;;;;;7.32;2.20;;;24.50;53.40;;;;;;5028611;28;20055;-74
2021/05/03 12:44:43;;;;;;;8.73;1.80;;;24.20;56.10;;;;;;5046598;28;20048;-73
2021/05/03 12:48:06;;;;;;;6.15;1.67;;;24.80;56.60;;;;;;5039643;28;20048;-73
2021/05/03 12:54:39;;;;;;;6.18;1.63;;;24.70;51.10;;;;;;5028196;28;20044;-72
2021/05/03 12:58:09;;;;;;;4.85;1.40;;;26.50;54.90;;;;;;5032176;28;20053;-72
2021/05/03 13:08:14;;;;;;;4.38;1.80;;;24.20;52.50;;;;;;5034139;28;20040;-72
2021/05/03 13:11:55;;;;;;;5.57;1.48;;;25.30;56.10;;;;;;5033947;28;20388;-73
2021/05/03 13:25:32;;;;;;;6.38;2.00;;;22.70;58.90;;;;;;5033914;28;20048;-72
2021/05/03 13:28:57;;;;;;;6.75;1.80;;;23.80;57.20;;;;;;5033553;28;20044;-69
2021/05/03 13:32:03;;;;;;;6.78;2.05;;;24.00;54.70;;;;;;5032247;28;20044;-71
2021/05/03 13:35:07;;;;;;;4.47;1.80;;;23.60;55.70;;;;;;5029949;28;20037;-72
2021/05/03 13:38:12;;;;;;;7.88;1.80;;;21.90;55.50;;;;;;5032690;28;20049;-73
2021/05/03 13:41:16;;;;;;;5.28;1.80;;;22.30;58.60;;;;;;5031332;28;20044;-72
2021/05/03 13:44:21;;;;;;;5.93;1.75;;;22.90;58.60;;;;;;5043342;28;20048;-72
2021/05/03 13:47:25;;;;;;;3.97;1.60;;;23.50;58.00;;;;;;5045580;28;20048;-73
2021/05/03 13:50:30;;;;;;;5.53;1.90;;;23.20;56.40;;;;;;5049075;28;20372;-72
2021/05/03 13:53:38;;;;;;;6.18;2.03;;;21.90;60.90;;;;;;5049682;28;20028;-71
2021/05/03 13:56:42;;;;;;;9.18;1.73;;;22.90;59.00;;;;;;5049564;28;20040;-73
2021/05/03 13:59:47;;;;;;;7.45;1.88;;;23.90;59.90;;;;;;5043794;28;20052;-72
2021/05/03 14:02:51;;;;;;;6.20;1.58;;;23.80;56.90;;;;;;5049905;28;20120;-73
2021/05/03 14:05:55;;;;;;;6.50;2.03;;;21.80;57.10;;;;;;5049365;28;20048;-72
2021/05/03 14:09:00;;;;;;;5.47;1.83;;;22.60;62.50;;;;;;5053636;28;20471;-73
2021/05/03 14:12:04;;;;;;;7.35;1.98;;;22.50;57.20;;;;;;5053203;28;20056;-72
2021/05/03 14:15:09;;;;;;;6.00;2.10;;;22.10;61.30;;;;;;5052076;28;20565;-72
2021/05/03 14:18:13;;;;;;;6.07;2.03;;;22.40;56.80;;;;;;5053878;28;20470;-74
2021/05/03 14:21:20;;;;;;;9.50;2.08;;;21.70;57.60;;;;;;5052582;28;20044;-74
2021/05/03 14:24:24;;;;;;;5.03;1.65;;;22.20;58.40;;;;;;5040104;28;20720;-73
2021/05/03 14:27:28;;;;;;;4.60;1.92;;;22.10;60.40;;;;;;5053335;28;20470;-75
2021/05/03 14:33:42;;;;;;;5.85;1.70;;;21.70;59.40;;;;;;5046350;28;20048;-73
2021/05/03 14:36:48;;;;;;;6.53;2.28;;;22.50;58.80;;;;;;5052627;28;20383;-74
2021/05/03 14:39:52;;;;;;;6.32;2.10;;;21.70;57.10;;;;;;5052411;28;20044;-72
2021/05/03 14:43:00;;;;;;;9.18;1.85;;;20.80;62.50;;;;;;5050275;28;20052;-73
2021/05/03 14:46:11;;;;;;;5.45;2.20;;;21.50;58.90;;;;;;5050258;28;20048;-73
2021/05/03 14:52:45;;;;;;;6.38;2.13;;;21.70;60.90;;;;;;5052395;28;20039;-73
2021/05/03 14:55:50;;;;;;;7.07;1.70;;;22.30;57.70;;;;;;5043327;28;21039;-73
2021/05/03 14:58:55;;;;;;;4.70;1.75;;;22.50;58.00;;;;;;5046679;28;20044;-73
2021/05/03 15:02:02;;;;;;;5.32;1.65;;;22.00;57.30;;;;;;5040467;28;20044;-74
2021/05/03 15:05:06;;;;;;;6.63;1.85;;;22.50;58.00;;;;;;5041255;28;20052;-73
2021/05/03 15:08:12;;;;;;;5.45;2.05;;;22.20;56.40;;;;;;5039415;28;20056;-73
2021/05/03 15:11:19;;;;;;;8.48;1.60;;;21.10;57.20;;;;;;5036376;28;20048;-73
2021/05/03 15:14:29;;;;;;;7.75;2.13;;;21.20;60.10;;;;;;5031336;28;20036;-73
2021/05/03 15:24:07;;;;;;;6.10;2.00;;;20.50;60.80;;;;;;5032154;28;20052;-73
2021/05/03 15:27:20;;;;;;;5.60;1.70;;;21.00;62.80;;;;;;5040127;28;20060;-72
2021/05/03 15:33:47;;;;;;;;;;;21.60;62.10;;;;;;5040833;28;20044;-72
2021/05/03 15:36:51;;;;;;;11.93;2.25;;;21.60;59.90;;;;;;5038968;28;19913;-72
2021/05/03 15:39:55;;;;;;;4.53;1.98;;;21.60;62.20;;;;;;5040661;28;20036;-72
2021/05/03 15:43:00;;;;;;;7.18;1.90;;;21.60;63.30;;;;;;5042961;28;20052;-72
2021/05/03 15:46:04;;;;;;;6.53;1.90;;;21.60;63.20;;;;;;5036770;28;20052;-72
2021/05/03 15:49:09;;;;;;;5.70;1.90;;;21.70;60.00;;;;;;5044367;28;20067;-73
2021/05/03 15:52:13;;;;;;;6.55;1.60;;;21.30;59.60;;;;;;5036458;28;20044;-73
2021/05/03 15:55:18;;;;;;;5.90;2.30;;;21.00;58.40;;;;;;5045903;28;20056;-73
2021/05/03 15:58:23;;;;;;;3.83;1.95;;;21.10;59.30;;;;;;5039264;28;20060;-73
2021/05/03 16:01:28;;;;;;;4.88;1.88;;;21.00;59.70;;;;;;5045325;28;20491;-73
2021/05/03 16:04:33;;;;;;;4.68;1.70;;;21.00;59.80;;;;;;5036629;28;20048;-73
2021/05/03 16:07:37;;;;;;;4.50;1.80;;;20.70;63.10;;;;;;5012813;28;20732;-72
2021/05/03 16:10:42;;;;;;;9.27;2.70;;;20.90;60.30;;;;;;5004690;28;20044;-72
2021/05/03 16:13:47;;;;;;;4.80;1.92;;;20.60;59.50;;;;;;5018548;28;20052;-72
2021/05/03 16:16:51;;;;;;;5.22;1.83;;;20.10;61.80;;;;;;5021561;28;20056;-72
2021/05/03 16:19:57;;;;;;;7.45;2.22;;;19.80;61.10;;;;;;5022986;28;20052;-73
2021/05/03 16:23:01;;;;;;;8.77;2.03;;;20.10;62.10;;;;;;5020611;28;20060;-72
2021/05/03 16:26:05;;;;;;;6.18;2.03;;;20.20;61.60;;;;;;5021840;28;20052;-72
2021/05/03 16:29:10;;;;;;;5.45;2.28;;;20.40;62.50;;;;;;5017789;28;20051;-72
2021/05/03 16:32:14;;;;;;;6.22;2.15;;;20.20;68.20;;;;;;5023892;28;20044;-71
2021/05/03 16:35:19;;;;;;;7.20;2.28;;;20.40;63.70;;;;;;5036868;28;20052;-72
2021/05/03 16:38:23;;;;;;;6.43;2.60;;;20.50;62.80;;;;;;5033145;28;20048;-72
2021/05/03 16:41:27;;;;;;;4.45;2.00;;;20.30;61.60;;;;;;5022565;28;20044;-73
2021/05/03 16:44:32;;;;;;;5.60;1.88;;;20.40;64.10;;;;;;5031474;28;20040;-72
2021/05/03 16:47:36;;;;;;;4.45;2.25;;;20.40;63.70;;;;;;5028587;28;20040;-72
2021/05/03 16:50:42;;;;;;;10.27;2.28;;;20.30;64.60;;;;;;5043767;28;20392;-72
2021/05/03 16:53:47;;;;;;;7.63;1.80;;;20.10;64.90;;;;;;5048652;28;20472;-72
2021/05/03 16:56:52;;;;;;;5.68;1.77;;;19.90;64.90;;;;;;5048458;28;20044;-72
2021/05/03 16:59:56;;;;;;;5.35;2.10;;;19.70;65.90;;;;;;5038958;28;20047;-72
2021/05/03 17:03:00;;;;;;;5.47;2.10;;;19.60;66.30;;;;;;5045033;28;20048;-72
2021/05/03 17:06:05;;;;;;;7.50;2.05;;;19.70;66.80;;;;;;5049346;28;20044;-72
2021/05/03 17:09:09;;;;;;;7.20;1.90;;;19.70;65.60;;;;;;5041515;28;20487;-72